Time,TemperatureF,DewpointF,PressureIn,WindDirection,WindDirectionDegrees,WindSpeedMPH,WindSpeedGustMPH,Humidity,HourlyPrecipIn,Conditions,Clouds,dailyrainin,SoftwareType,DateUTC
2013-02-10 00:01:00,65.0,62.0,29.71,WSW,242,10.0,12.0,91,0.00,,,0.00,,2013-02-10 06:01:00,
2013-02-10 00:11:00,65.0,62.0,29.71,WSW,242,10.0,12.0,91,0.00,,,0.00,,2013-02-10 06:11:00,
2013-02-10 00:21:00,64.0,61.0,29.73,West,260,11.0,13.0,90,0.00,,,0.00,,2013-02-10 06:21:00,
2013-02-10 00:32:00,61.0,61.0,29.77,West,269,21.0,25.0,100,0.02,,,0.00,,2013-02-10 06:32:00,
2013-02-10 00:42:00,61.0,61.0,29.77,West,269,21.0,25.0,100,0.02,,,0.00,,2013-02-10 06:42:00,
2013-02-10 00:52:00,56.0,56.0,29.75,SSW,198,11.0,11.0,100,0.02,,,0.00,,2013-02-10 06:52:00,
2013-02-10 01:01:00,56.0,56.0,29.75,WNW,287,10.0,10.0,100,0.02,,,0.00,,2013-02-10 07:01:00,
2013-02-10 01:21:00,57.0,57.0,29.77,WNW,290,12.0,16.0,100,0.02,,,0.00,,2013-02-10 07:21:00,
2013-02-10 01:31:00,50.0,50.0,29.80,WNW,302,14.0,15.0,100,0.14,,,0.00,,2013-02-10 07:31:00,
2013-02-10 01:52:00,47.0,47.0,29.80,NW,309,10.0,10.0,100,0.14,,,0.00,,2013-02-10 07:52:00,
2013-02-10 02:01:00,46.0,46.0,29.82,WNW,290,7.0,8.0,100,0.14,,,0.00,,2013-02-10 08:01:00,
2013-02-10 02:21:00,46.0,46.0,29.83,WNW,290,7.0,7.0,100,0.14,,,0.00,,2013-02-10 08:21:00,
2013-02-10 02:32:00,47.0,47.0,29.83,WNW,283,6.0,6.0,100,0.00,,,0.00,,2013-02-10 08:32:00,
2013-02-10 02:52:00,46.0,46.0,29.83,West,281,5.0,6.0,100,0.00,,,0.00,,2013-02-10 08:52:00,
2013-02-10 03:02:00,47.0,47.0,29.84,WSW,255,4.0,4.0,100,0.00,,,0.00,,2013-02-10 09:02:00,
2013-02-10 03:21:00,46.0,46.0,29.84,WNW,288,5.0,5.0,100,0.00,,,0.00,,2013-02-10 09:21:00,
2013-02-10 03:31:00,46.0,46.0,29.83,West,263,4.0,4.0,100,0.00,,,0.00,,2013-02-10 09:31:00,
2013-02-10 03:52:00,46.0,46.0,29.85,West,274,4.0,4.0,100,0.00,,,0.00,,2013-02-10 09:52:00,
2013-02-10 04:01:00,45.0,45.0,29.85,West,264,4.0,4.0,100,0.00,,,0.00,,2013-02-10 10:01:00,
2013-02-10 04:11:00,45.0,45.0,29.86,WSW,243,3.0,4.0,100,0.00,,,0.00,,2013-02-10 10:11:00,
2013-02-10 04:21:00,45.0,45.0,29.86,WSW,243,3.0,4.0,100,0.00,,,0.00,,2013-02-10 10:21:00,
2013-02-10 04:31:00,44.0,44.0,29.87,WSW,250,2.0,3.0,100,0.00,,,0.00,,2013-02-10 10:31:00,
2013-02-10 04:52:00,44.0,44.0,29.87,West,278,4.0,4.0,100,0.00,,,0.00,,2013-02-10 10:52:00,
2013-02-10 05:01:00,44.0,44.0,29.88,West,280,4.0,4.0,100,0.00,,,0.00,,2013-02-10 11:01:00,
2013-02-10 05:21:00,43.0,43.0,29.88,West,270,2.0,2.0,100,0.00,,,0.00,,2013-02-10 11:21:00,
2013-02-10 05:32:00,43.0,43.0,29.88,West,274,3.0,3.0,100,0.00,,,0.00,,2013-02-10 11:32:00,
2013-02-10 05:52:00,43.0,43.0,29.88,West,260,3.0,3.0,100,0.00,,,0.00,,2013-02-10 11:52:00,
2013-02-10 06:01:00,43.0,43.0,29.90,WSW,246,4.0,4.0,100,0.00,,,0.00,,2013-02-10 12:01:00,
2013-02-10 06:21:00,42.0,42.0,29.90,WSW,242,4.0,4.0,100,0.00,,,0.00,,2013-02-10 12:21:00,
2013-02-10 06:32:00,42.0,42.0,29.90,WSW,238,4.0,4.0,100,0.00,,,0.00,,2013-02-10 12:32:00,
2013-02-10 06:52:00,41.0,41.0,29.91,West,264,4.0,4.0,100,0.00,,,0.00,,2013-02-10 12:52:00,
2013-02-10 07:02:00,40.0,40.0,29.92,West,270,3.0,3.0,100,0.00,,,0.00,,2013-02-10 13:02:00,
2013-02-10 07:21:00,39.0,39.0,29.92,WSW,248,5.0,5.0,100,0.00,,,0.00,,2013-02-10 13:21:00,
2013-02-10 07:31:00,39.0,39.0,29.93,SW,224,4.0,5.0,100,0.00,,,0.00,,2013-02-10 13:31:00,
2013-02-10 07:52:00,38.0,38.0,29.93,WSW,245,6.0,6.0,100,0.00,,,0.00,,2013-02-10 13:52:00,
2013-02-10 08:02:00,38.0,38.0,29.94,WSW,253,6.0,7.0,100,0.00,,,0.00,,2013-02-10 14:02:00,
2013-02-10 08:21:00,38.0,38.0,29.95,SW,233,6.0,6.0,100,0.00,,,0.00,,2013-02-10 14:21:00,
2013-02-10 08:31:00,39.0,39.0,29.96,WSW,253,6.0,6.0,100,0.00,,,0.16,,2013-02-10 14:31:00,
2013-02-10 08:52:00,42.0,42.0,29.97,WSW,239,5.0,5.0,100,0.00,,,0.16,,2013-02-10 14:52:00,
2013-02-10 09:02:00,43.0,43.0,29.97,West,264,6.0,6.0,100,0.00,,,0.16,,2013-02-10 15:02:00,
2013-02-10 09:21:00,43.0,43.0,29.98,West,263,6.0,6.0,100,0.00,,,0.16,,2013-02-10 15:21:00,
2013-02-10 09:32:00,43.0,43.0,29.98,WNW,283,7.0,7.0,100,0.00,,,0.16,,2013-02-10 15:32:00,
2013-02-10 09:52:00,45.0,45.0,29.98,West,281,8.0,8.0,100,0.00,,,0.16,,2013-02-10 15:52:00,
2013-02-10 10:02:00,47.0,47.0,29.98,West,266,8.0,8.0,100,0.00,,,0.16,,2013-02-10 16:02:00,
2013-02-10 10:11:00,48.0,48.0,29.98,WSW,257,7.0,11.0,100,0.00,,,0.16,,2013-02-10 16:11:00,
2013-02-10 10:21:00,48.0,48.0,29.98,WSW,257,7.0,11.0,100,0.00,,,0.16,,2013-02-10 16:21:00,
2013-02-10 10:32:00,50.0,50.0,29.98,West,269,9.0,9.0,100,0.00,,,0.16,,2013-02-10 16:32:00,
2013-02-10 10:42:00,51.0,51.0,29.98,WNW,284,10.0,10.0,100,0.00,,,0.16,,2013-02-10 16:42:00,
2013-02-10 10:52:00,51.0,51.0,29.98,WNW,284,10.0,10.0,100,0.00,,,0.16,,2013-02-10 16:52:00,
2013-02-10 11:01:00,51.0,51.0,29.98,NW,307,8.0,8.0,100,0.00,,,0.16,,2013-02-10 17:01:00,
2013-02-10 11:21:00,52.0,52.0,29.98,WNW,290,8.0,10.0,100,0.00,,,0.16,,2013-02-10 17:21:00,
2013-02-10 11:32:00,54.0,54.0,29.97,WNW,294,10.0,12.0,100,0.00,,,0.16,,2013-02-10 17:32:00,
2013-02-10 11:42:00,55.0,55.0,29.96,West,280,7.0,7.0,99,0.00,,,0.16,,2013-02-10 17:42:00,
2013-02-10 11:52:00,55.0,55.0,29.96,West,280,7.0,7.0,99,0.00,,,0.16,,2013-02-10 17:52:00,
2013-02-10 12:02:00,57.0,56.0,29.96,WNW,290,9.0,11.0,97,0.00,,,0.16,,2013-02-10 18:02:00,
2013-02-10 12:11:00,58.0,57.0,29.95,WSW,255,8.0,8.0,97,0.00,,,0.16,,2013-02-10 18:11:00,
2013-02-10 12:21:00,58.0,57.0,29.95,WSW,255,8.0,8.0,97,0.00,,,0.16,,2013-02-10 18:21:00,
2013-02-10 12:32:00,60.0,59.0,29.94,West,276,9.0,9.0,95,0.00,,,0.16,,2013-02-10 18:32:00,
2013-02-10 12:52:00,61.0,60.0,29.93,NW,304,10.0,10.0,95,0.00,,,0.16,,2013-02-10 18:52:00,
2013-02-10 13:02:00,61.0,59.0,29.92,West,278,8.0,8.0,94,0.00,,,0.16,,2013-02-10 19:02:00,
2013-02-10 13:11:00,61.0,58.0,29.91,NW,307,11.0,11.0,90,0.00,,,0.16,,2013-02-10 19:11:00,
2013-02-10 13:22:00,61.0,58.0,29.91,NW,307,11.0,11.0,90,0.00,,,0.16,,2013-02-10 19:22:00,
2013-02-10 13:32:00,61.0,59.0,29.91,West,270,7.0,12.0,94,0.00,,,0.16,,2013-02-10 19:32:00,
2013-02-10 13:42:00,61.0,59.0,29.90,WNW,294,7.0,7.0,93,0.00,,,0.16,,2013-02-10 19:42:00,
2013-02-10 13:52:00,61.0,59.0,29.90,WNW,294,7.0,7.0,93,0.00,,,0.16,,2013-02-10 19:52:00,
2013-02-10 14:02:00,63.0,61.0,29.90,WNW,293,8.0,8.0,94,0.00,,,0.16,,2013-02-10 20:02:00,
2013-02-10 14:21:00,63.0,61.0,29.88,WSW,242,7.0,7.0,94,0.00,,,0.16,,2013-02-10 20:21:00,
2013-02-10 14:32:00,64.0,62.0,29.88,West,280,5.0,8.0,94,0.00,,,0.16,,2013-02-10 20:32:00,
2013-02-10 14:42:00,64.0,62.0,29.88,West,262,8.0,11.0,93,0.00,,,0.16,,2013-02-10 20:42:00,
2013-02-10 14:52:00,64.0,62.0,29.88,West,262,8.0,11.0,93,0.00,,,0.16,,2013-02-10 20:52:00,
2013-02-10 15:02:00,64.0,61.0,29.87,WNW,285,7.0,7.0,91,0.00,,,0.16,,2013-02-10 21:02:00,
2013-02-10 15:21:00,64.0,60.0,29.87,WSW,246,6.0,7.0,88,0.00,,,0.16,,2013-02-10 21:21:00,
2013-02-10 15:32:00,64.0,60.0,29.87,WSW,242,6.0,6.0,87,0.00,,,0.16,,2013-02-10 21:32:00,
2013-02-10 15:42:00,63.0,58.0,29.87,NW,308,8.0,8.0,84,0.00,,,0.16,,2013-02-10 21:42:00,
2013-02-10 15:52:00,63.0,58.0,29.87,NW,308,8.0,8.0,84,0.00,,,0.16,,2013-02-10 21:52:00,
2013-02-10 16:01:00,63.0,52.0,29.88,West,263,7.0,7.0,67,0.00,,,0.16,,2013-02-10 22:01:00,
2013-02-10 16:11:00,63.0,45.0,29.87,West,259,7.0,7.0,52,0.00,,,0.16,,2013-02-10 22:11:00,
2013-02-10 16:21:00,63.0,45.0,29.87,West,259,7.0,7.0,52,0.00,,,0.16,,2013-02-10 22:21:00,
2013-02-10 16:32:00,62.0,41.0,29.88,NW,323,8.0,8.0,46,0.00,,,0.16,,2013-02-10 22:32:00,
2013-02-10 16:42:00,62.0,43.0,29.88,NW,309,3.0,8.0,50,0.00,,,0.16,,2013-02-10 22:42:00,
2013-02-10 16:52:00,62.0,43.0,29.88,NW,309,3.0,8.0,50,0.00,,,0.16,,2013-02-10 22:52:00,
2013-02-10 17:02:00,62.0,44.0,29.88,West,264,3.0,4.0,51,0.00,,,0.16,,2013-02-10 23:02:00,
2013-02-10 17:22:00,61.0,43.0,29.88,NW,309,5.0,5.0,52,0.00,,,0.16,,2013-02-10 23:22:00,
2013-02-10 17:32:00,61.0,46.0,29.89,West,280,3.0,3.0,57,0.00,,,0.16,,2013-02-10 23:32:00,
2013-02-10 17:42:00,60.0,47.0,29.89,West,278,0.0,0.0,61,0.00,,,0.16,,2013-02-10 23:42:00,
2013-02-10 17:52:00,60.0,47.0,29.89,West,278,0.0,0.0,61,0.00,,,0.16,,2013-02-10 23:52:00,
2013-02-10 18:02:00,58.0,46.0,29.90,West,278,0.0,0.0,64,0.00,,,0.16,,2013-02-11 00:02:00,
2013-02-10 18:11:00,56.0,44.0,29.90,West,278,0.0,0.0,65,0.00,,,0.16,,2013-02-11 00:11:00,
2013-02-10 18:22:00,56.0,44.0,29.90,West,278,0.0,0.0,65,0.00,,,0.16,,2013-02-11 00:22:00,
2013-02-10 18:32:00,55.0,44.0,29.90,West,278,0.0,0.0,66,0.00,,,0.16,,2013-02-11 00:32:00,
2013-02-10 18:42:00,52.0,43.0,29.91,SW,228,0.0,0.0,70,0.00,,,0.16,,2013-02-11 00:42:00,
2013-02-10 18:52:00,52.0,43.0,29.91,SW,228,0.0,0.0,70,0.00,,,0.16,,2013-02-11 00:52:00,
2013-02-10 19:01:00,51.0,42.0,29.91,SW,228,0.0,0.0,71,0.00,,,0.16,,2013-02-11 01:01:00,
2013-02-10 19:21:00,50.0,42.0,29.91,SW,228,0.0,0.0,73,0.00,,,0.16,,2013-02-11 01:21:00,
2013-02-10 19:32:00,50.0,40.0,29.92,SW,228,0.0,0.0,68,0.00,,,0.16,,2013-02-11 01:32:00,
2013-02-10 19:41:00,50.0,40.0,29.92,SW,228,0.0,0.0,68,0.00,,,0.16,,2013-02-11 01:41:00,
2013-02-10 19:52:00,50.0,40.0,29.92,SW,228,0.0,0.0,68,0.00,,,0.16,,2013-02-11 01:52:00,
2013-02-10 20:01:00,48.0,39.0,29.93,SW,228,0.0,0.0,70,0.00,,,0.16,,2013-02-11 02:01:00,
2013-02-10 20:21:00,48.0,41.0,29.93,SSE,166,3.0,3.0,77,0.00,,,0.16,,2013-02-11 02:21:00,
2013-02-10 20:31:00,47.0,43.0,29.95,South,183,4.0,4.0,87,0.00,,,0.16,,2013-02-11 02:31:00,
2013-02-10 20:42:00,46.0,43.0,29.96,South,174,4.0,4.0,88,0.00,,,0.16,,2013-02-11 02:42:00,
2013-02-10 20:52:00,46.0,43.0,29.96,South,174,4.0,4.0,88,0.00,,,0.16,,2013-02-11 02:52:00,
2013-02-10 21:01:00,45.0,43.0,29.98,South,183,5.0,5.0,92,0.00,,,0.16,,2013-02-11 03:01:00,
2013-02-10 21:11:00,46.0,44.0,29.98,SW,217,4.0,4.0,92,0.00,,,0.16,,2013-02-11 03:11:00,
2013-02-10 21:21:00,46.0,44.0,29.98,SW,217,4.0,4.0,92,0.00,,,0.16,,2013-02-11 03:21:00,
2013-02-10 21:31:00,45.0,43.0,29.98,SSE,167,2.0,2.0,92,0.00,,,0.16,,2013-02-11 03:31:00,
2013-02-10 21:42:00,45.0,43.0,29.98,SSE,149,0.0,0.0,94,0.00,,,0.16,,2013-02-11 03:42:00,
2013-02-10 21:52:00,45.0,43.0,29.98,SSE,149,0.0,0.0,94,0.00,,,0.16,,2013-02-11 03:52:00,
2013-02-10 22:01:00,45.0,43.0,29.99,SSE,149,0.0,0.0,94,0.00,,,0.16,,2013-02-11 04:01:00,
2013-02-10 22:21:00,45.0,44.0,29.98,NW,309,3.0,3.0,95,0.00,,,0.16,,2013-02-11 04:21:00,
2013-02-10 22:31:00,45.0,44.0,29.99,NW,318,0.0,0.0,95,0.00,,,0.16,,2013-02-11 04:31:00,
2013-02-10 22:42:00,45.0,43.0,29.99,NW,315,1.0,3.0,92,0.00,,,0.16,,2013-02-11 04:42:00,
2013-02-10 22:52:00,45.0,43.0,29.99,NW,315,1.0,3.0,92,0.00,,,0.16,,2013-02-11 04:52:00,
2013-02-10 23:01:00,45.0,43.0,29.98,NW,319,0.0,0.0,92,0.00,,,0.16,,2013-02-11 05:01:00,
2013-02-10 23:12:00,45.0,43.0,29.98,NW,319,0.0,0.0,93,0.00,,,0.16,,2013-02-11 05:12:00,
2013-02-10 23:22:00,45.0,43.0,29.98,NW,319,0.0,0.0,93,0.00,,,0.16,,2013-02-11 05:22:00,
2013-02-10 23:31:00,46.0,43.0,29.98,NW,319,0.0,0.0,90,0.00,,,0.16,,2013-02-11 05:31:00,
2013-02-10 23:42:00,45.0,43.0,29.99,NW,319,0.0,0.0,93,0.00,,,0.16,,2013-02-11 05:42:00,
2013-02-10 23:52:00,45.0,43.0,29.99,NW,319,0.0,0.0,93,0.00,,,0.16,,2013-02-11 05:52:00,